Time;durP1;ratioP1;P1;durP2;ratioP2;P2;SDS_P1;SDS_P2;PMS_P1;PMS_P2;Temp;Humidity;BMP_temperature;BMP_pressure;BME280_temperature;BME280_humidity;BME280_pressure;Samples;Min_cycle;Max_cycle;Signal;HPM_P1;HPM_P2
2022/12/30 00:02:05;;;;;;;4.45;3.45;;;;;;;;;;1924900;74;21068;-49
2022/12/30 00:04:33;;;;;;;7.03;4.20;;;;;;;;;;1924855;74;21120;-50
2022/12/30 00:07:03;;;;;;;6.92;3.50;;;;;;;;;;1910876;74;21059;-50
2022/12/30 00:09:31;;;;;;;4.78;3.55;;;;;;;;;;1905419;75;20996;-53
2022/12/30 00:33:06;;;;;;;5.05;3.52;;;;;;;;;;1905265;75;21024;-50
2022/12/30 00:34:07;;;;;;;5.00;4.17;;;;;;;;;;1905448;75;21074;-52
2022/12/30 00:36:36;;;;;;;5.65;3.20;;;;;;;;;;1905443;75;21102;-49
2022/12/30 00:39:04;;;;;;;7.08;4.00;;;;;;;;;;1905456;75;21083;-52
2022/12/30 00:44:20;;;;;;;8.15;4.45;;;;;;;;;;1905469;75;21075;-52
2022/12/30 00:46:48;;;;;;;4.97;4.00;;;;;;;;;;1905442;75;21004;-49
2022/12/30 00:57:38;;;;;;;5.67;3.70;;;;;;;;;;1905395;75;21036;-49
2022/12/30 01:00:08;;;;;;;7.17;3.52;;;;;;;;;;1905530;75;21055;-51
2022/12/30 01:02:36;;;;;;;6.75;3.80;;;;;;;;;;1905374;75;21640;-50
2022/12/30 01:05:06;;;;;;;5.35;3.62;;;;;;;;;;1905434;75;21387;-50
2022/12/30 01:07:35;;;;;;;6.22;4.37;;;;;;;;;;1920059;74;21022;-50
2022/12/30 01:10:03;;;;;;;7.53;4.33;;;;;;;;;;1924748;74;21066;-49
2022/12/30 01:12:32;;;;;;;11.48;4.35;;;;;;;;;;1924764;74;21038;-51
2022/12/30 01:15:01;;;;;;;8.25;3.40;;;;;;;;;;1924800;74;21094;-49
2022/12/30 01:17:30;;;;;;;7.62;4.05;;;;;;;;;;1924766;74;21083;-51
2022/12/30 01:19:59;;;;;;;4.60;3.60;;;;;;;;;;1924775;74;21117;-51
2022/12/30 01:22:27;;;;;;;9.55;4.10;;;;;;;;;;1924875;74;21114;-52
2022/12/30 01:24:56;;;;;;;7.83;4.37;;;;;;;;;;1924767;74;21169;-49
2022/12/30 01:27:25;;;;;;;8.70;4.85;;;;;;;;;;1924784;74;21034;-50
2022/12/30 01:29:54;;;;;;;11.53;4.35;;;;;;;;;;1924803;74;21058;-50
2022/12/30 01:32:23;;;;;;;9.78;4.40;;;;;;;;;;1924846;74;21074;-52
2022/12/30 01:34:55;;;;;;;10.65;4.33;;;;;;;;;;1924884;74;21477;-53
2022/12/30 01:37:23;;;;;;;9.70;4.42;;;;;;;;;;1924734;74;21146;-51
2022/12/30 01:39:52;;;;;;;12.47;4.90;;;;;;;;;;1924788;74;21156;-51
2022/12/30 01:42:24;;;;;;;8.08;4.80;;;;;;;;;;1924781;74;21129;-50
2022/12/30 01:44:56;;;;;;;13.18;4.42;;;;;;;;;;1924828;74;21398;-52
2022/12/30 01:47:25;;;;;;;9.48;4.47;;;;;;;;;;1924754;74;21650;-50
2022/12/30 01:49:55;;;;;;;9.33;4.45;;;;;;;;;;1923724;74;21044;-50
2022/12/30 01:52:25;;;;;;;6.05;3.95;;;;;;;;;;1924751;74;21066;-52
2022/12/30 01:54:55;;;;;;;9.73;4.20;;;;;;;;;;1924816;74;21172;-50
2022/12/30 01:57:24;;;;;;;6.55;3.83;;;;;;;;;;1924812;74;21128;-49
2022/12/30 01:59:53;;;;;;;6.42;4.30;;;;;;;;;;1924722;74;21148;-50
2022/12/30 02:02:21;;;;;;;7.12;4.50;;;;;;;;;;1924762;74;21141;-51
2022/12/30 02:04:50;;;;;;;6.10;4.50;;;;;;;;;;1924806;74;21023;-51
2022/12/30 02:07:23;;;;;;;11.57;4.97;;;;;;;;;;1924711;74;21050;-49
2022/12/30 02:09:52;;;;;;;9.45;5.55;;;;;;;;;;1924775;74;21137;-52
2022/12/30 02:12:20;;;;;;;8.73;4.78;;;;;;;;;;1924799;74;21062;-50
2022/12/30 02:14:49;;;;;;;9.95;5.00;;;;;;;;;;1924738;74;21224;-52
2022/12/30 02:17:31;;;;;;;9.45;4.75;;;;;;;;;;1924745;74;21003;-50
2022/12/30 02:20:18;;;;;;;9.93;4.58;;;;;;;;;;1924762;74;21054;-50
2022/12/30 02:23:04;;;;;;;8.93;3.98;;;;;;;;;;1924727;74;21069;-49
2022/12/30 02:25:51;;;;;;;7.70;4.33;;;;;;;;;;1924761;74;21039;-52
2022/12/30 02:28:20;;;;;;;10.38;3.83;;;;;;;;;;1924744;74;21101;-49
2022/12/30 02:31:09;;;;;;;6.95;3.35;;;;;;;;;;1924737;74;21562;-51
2022/12/30 02:33:38;;;;;;;18.77;4.78;;;;;;;;;;1924809;74;21023;-50
2022/12/30 02:36:08;;;;;;;7.00;3.50;;;;;;;;;;1924282;74;21165;-50
2022/12/30 02:38:41;;;;;;;9.55;3.30;;;;;;;;;;1924486;74;21531;-49
2022/12/30 02:46:52;;;;;;;9.38;3.55;;;;;;;;;;1924759;74;21094;-52
2022/12/30 02:49:21;;;;;;;10.65;3.33;;;;;;;;;;1924586;74;21132;-51
2022/12/30 02:54:37;;;;;;;7.85;2.85;;;;;;;;;;1924747;74;21140;-50
2022/12/30 02:57:07;;;;;;;7.03;2.30;;;;;;;;;;1924757;74;21066;-49
2022/12/30 03:05:20;;;;;;;3.72;2.12;;;;;;;;;;1924814;74;21106;-48
2022/12/30 03:07:59;;;;;;;4.85;1.92;;;;;;;;;;1915300;74;21039;-48
2022/12/30 03:13:20;;;;;;;2.80;2.27;;;;;;;;;;1894836;75;21101;-50
2022/12/30 03:15:53;;;;;;;2.52;1.80;;;;;;;;;;1905539;75;21123;-50
2022/12/30 03:18:22;;;;;;;5.78;2.35;;;;;;;;;;1889295;75;21127;-51
2022/12/30 03:20:51;;;;;;;3.72;2.47;;;;;;;;;;1905431;75;21098;-49
2022/12/30 03:28:54;;;;;;;9.65;3.60;;;;;;;;;;1905449;75;21035;-49
2022/12/30 03:31:23;;;;;;;7.78;2.90;;;;;;;;;;1905395;75;21094;-49
2022/12/30 03:33:52;;;;;;;3.72;2.72;;;;;;;;;;1905307;75;21082;-53
2022/12/30 03:36:22;;;;;;;9.20;3.27;;;;;;;;;;1905369;75;21099;-48
2022/12/30 03:38:55;;;;;;;14.90;3.55;;;;;;;;;;1904582;74;21043;-49
2022/12/30 03:41:24;;;;;;;4.87;3.12;;;;;;;;;;1905370;75;21160;-48
2022/12/30 03:43:53;;;;;;;12.07;5.05;;;;;;;;;;1905454;75;21019;-50
2022/12/30 03:46:23;;;;;;;5.28;3.72;;;;;;;;;;1905490;75;21051;-50
2022/12/30 03:48:52;;;;;;;5.37;3.37;;;;;;;;;;1905391;75;21119;-51
2022/12/30 03:51:20;;;;;;;12.33;3.80;;;;;;;;;;1905447;75;21101;-48
2022/12/30 03:53:49;;;;;;;7.22;3.95;;;;;;;;;;1905493;75;20983;-50
2022/12/30 03:56:17;;;;;;;12.78;4.00;;;;;;;;;;1905426;75;21055;-50
2022/12/30 03:58:46;;;;;;;7.92;3.90;;;;;;;;;;1905411;75;21028;-49
2022/12/30 04:01:15;;;;;;;11.20;5.55;;;;;;;;;;1905360;75;21213;-50
2022/12/30 04:03:43;;;;;;;15.43;7.20;;;;;;;;;;1905412;74;21036;-52
2022/12/30 04:06:12;;;;;;;27.25;11.48;;;;;;;;;;1905402;75;21093;-49
2022/12/30 04:08:41;;;;;;;41.13;11.43;;;;;;;;;;1905423;74;21113;-49
2022/12/30 04:11:10;;;;;;;31.20;11.57;;;;;;;;;;1905243;75;21091;-49
2022/12/30 04:13:38;;;;;;;45.00;12.25;;;;;;;;;;1905392;75;21043;-49
2022/12/30 04:16:07;;;;;;;34.58;11.10;;;;;;;;;;1905264;75;21079;-48
2022/12/30 04:18:36;;;;;;;22.65;10.43;;;;;;;;;;1905303;75;21036;-49
2022/12/30 04:21:05;;;;;;;35.63;10.20;;;;;;;;;;1905379;75;21137;-50
2022/12/30 04:23:33;;;;;;;29.42;10.65;;;;;;;;;;1905330;75;21122;-49
2022/12/30 04:26:02;;;;;;;41.77;13.03;;;;;;;;;;1905202;75;21093;-52
2022/12/30 04:28:30;;;;;;;32.03;11.08;;;;;;;;;;1905300;75;20996;-48
2022/12/30 04:30:59;;;;;;;55.80;14.75;;;;;;;;;;1905306;75;21169;-49
2022/12/30 04:33:27;;;;;;;53.58;14.70;;;;;;;;;;1905178;75;21269;-48
2022/12/30 04:35:56;;;;;;;21.65;7.53;;;;;;;;;;1905257;75;21095;-52
2022/12/30 04:38:25;;;;;;;24.55;7.50;;;;;;;;;;1905238;75;21035;-51
2022/12/30 04:40:54;;;;;;;22.45;8.85;;;;;;;;;;1905234;75;21073;-48
2022/12/30 04:43:22;;;;;;;20.43;8.08;;;;;;;;;;1905228;75;21098;-51
2022/12/30 04:45:51;;;;;;;16.12;8.05;;;;;;;;;;1905259;75;21113;-52
2022/12/30 04:48:19;;;;;;;27.90;6.90;;;;;;;;;;1905392;75;21160;-52
2022/12/30 04:50:48;;;;;;;21.55;7.58;;;;;;;;;;1905208;75;21188;-52
2022/12/30 04:53:17;;;;;;;16.10;6.95;;;;;;;;;;1905259;75;21043;-49
2022/12/30 04:55:45;;;;;;;31.48;10.93;;;;;;;;;;1905215;75;21090;-52
2022/12/30 04:58:14;;;;;;;21.35;7.10;;;;;;;;;;1905275;75;21032;-49
2022/12/30 05:00:43;;;;;;;10.55;6.37;;;;;;;;;;1905279;75;21091;-53
2022/12/30 05:03:11;;;;;;;18.42;7.15;;;;;;;;;;1905231;75;21063;-48
2022/12/30 05:05:40;;;;;;;18.10;5.50;;;;;;;;;;1905218;75;21083;-52
2022/12/30 05:08:08;;;;;;;21.02;6.90;;;;;;;;;;1909421;74;21098;-49
2022/12/30 05:10:38;;;;;;;39.53;12.15;;;;;;;;;;1924620;74;21014;-50
2022/12/30 05:13:06;;;;;;;39.58;13.62;;;;;;;;;;1924767;74;21073;-49
2022/12/30 05:15:35;;;;;;;17.95;8.98;;;;;;;;;;1924679;74;21054;-48
2022/12/30 05:18:04;;;;;;;19.92;8.93;;;;;;;;;;1924673;74;21078;-52
2022/12/30 05:20:32;;;;;;;15.38;8.83;;;;;;;;;;1924701;74;21062;-49
2022/12/30 05:23:01;;;;;;;23.07;11.28;;;;;;;;;;1924722;74;21077;-49
2022/12/30 05:28:17;;;;;;;22.10;9.03;;;;;;;;;;1924684;74;21173;-49
2022/12/30 05:30:45;;;;;;;21.12;8.60;;;;;;;;;;1924776;74;21082;-49
2022/12/30 05:33:14;;;;;;;18.02;9.65;;;;;;;;;;1924737;74;21087;-49
2022/12/30 05:35:44;;;;;;;16.77;8.95;;;;;;;;;;1924698;74;21023;-49
2022/12/30 05:38:13;;;;;;;28.87;8.20;;;;;;;;;;1924587;74;21456;-50
2022/12/30 05:40:41;;;;;;;34.50;11.68;;;;;;;;;;1924777;74;20991;-48
2022/12/30 05:43:10;;;;;;;41.55;14.47;;;;;;;;;;1924711;74;21066;-52
2022/12/30 05:45:39;;;;;;;39.15;12.28;;;;;;;;;;1924669;74;21094;-49
2022/12/30 05:48:07;;;;;;;56.58;16.27;;;;;;;;;;1924740;74;21090;-50
2022/12/30 05:50:36;;;;;;;38.02;13.95;;;;;;;;;;1924715;74;21047;-50
2022/12/30 05:53:04;;;;;;;35.23;11.70;;;;;;;;;;1924751;74;21249;-49
2022/12/30 05:55:33;;;;;;;37.70;12.05;;;;;;;;;;1924611;74;21097;-48
2022/12/30 05:58:02;;;;;;;30.92;12.55;;;;;;;;;;1924769;74;21038;-49
2022/12/30 06:00:30;;;;;;;46.02;13.78;;;;;;;;;;1924797;74;21022;-49
2022/12/30 06:02:59;;;;;;;41.45;13.30;;;;;;;;;;1924691;74;21130;-52
2022/12/30 06:05:27;;;;;;;47.17;13.25;;;;;;;;;;1924845;74;21054;-50
2022/12/30 06:07:56;;;;;;;25.65;9.50;;;;;;;;;;1924740;74;21011;-53
2022/12/30 06:10:25;;;;;;;36.85;10.05;;;;;;;;;;1906058;74;21047;-50
2022/12/30 06:12:53;;;;;;;21.23;9.30;;;;;;;;;;1905311;75;21093;-52
2022/12/30 06:15:22;;;;;;;19.35;6.35;;;;;;;;;;1905311;75;21163;-50
2022/12/30 06:17:51;;;;;;;23.90;10.30;;;;;;;;;;1905335;75;21011;-52
2022/12/30 06:20:20;;;;;;;32.83;7.55;;;;;;;;;;1905433;75;21113;-51
2022/12/30 06:22:50;;;;;;;17.67;6.70;;;;;;;;;;1905342;75;21127;-53
2022/12/30 06:25:18;;;;;;;21.05;6.15;;;;;;;;;;1905443;75;21548;-50
2022/12/30 06:27:47;;;;;;;30.27;10.45;;;;;;;;;;1905354;75;21091;-50
2022/12/30 06:30:16;;;;;;;30.45;9.63;;;;;;;;;;1905377;75;21093;-53
2022/12/30 06:32:44;;;;;;;24.05;8.78;;;;;;;;;;1905361;75;21043;-52
2022/12/30 06:35:13;;;;;;;17.10;8.00;;;;;;;;;;1905256;75;21031;-49
2022/12/30 06:37:42;;;;;;;27.62;9.38;;;;;;;;;;1905319;75;21095;-51
2022/12/30 06:40:11;;;;;;;25.17;9.55;;;;;;;;;;1905279;75;21036;-52
2022/12/30 06:42:40;;;;;;;21.10;10.63;;;;;;;;;;1905428;75;21101;-50
2022/12/30 06:45:09;;;;;;;19.10;10.35;;;;;;;;;;1905299;75;21063;-51
2022/12/30 06:47:37;;;;;;;14.10;9.63;;;;;;;;;;1905466;75;21153;-51
2022/12/30 06:50:06;;;;;;;16.37;9.45;;;;;;;;;;1905415;75;21043;-52
2022/12/30 06:52:35;;;;;;;19.75;10.23;;;;;;;;;;1905378;75;21035;-50
2022/12/30 06:55:04;;;;;;;28.92;9.98;;;;;;;;;;1905246;75;21048;-50
2022/12/30 06:57:33;;;;;;;40.30;15.28;;;;;;;;;;1905379;75;21061;-49
2022/12/30 07:00:02;;;;;;;18.32;10.03;;;;;;;;;;1905388;75;21023;-52
2022/12/30 07:02:31;;;;;;;21.70;8.00;;;;;;;;;;1905369;75;21004;-49
2022/12/30 07:04:59;;;;;;;14.05;6.95;;;;;;;;;;1905396;75;21004;-49
2022/12/30 07:07:28;;;;;;;7.78;4.60;;;;;;;;;;1905539;75;21063;-50
2022/12/30 07:09:57;;;;;;;5.72;3.15;;;;;;;;;;1916375;74;21116;-50
2022/12/30 07:12:25;;;;;;;4.78;2.50;;;;;;;;;;1924842;74;21023;-50
2022/12/30 07:14:54;;;;;;;3.30;2.47;;;;;;;;;;1924702;74;21066;-52
2022/12/30 07:17:23;;;;;;;4.95;2.27;;;;;;;;;;1924834;74;21089;-51
2022/12/30 07:19:51;;;;;;;4.53;2.87;;;;;;;;;;1924713;74;21034;-51
2022/12/30 07:22:20;;;;;;;4.78;2.20;;;;;;;;;;1924690;74;21007;-49
2022/12/30 07:24:49;;;;;;;3.90;2.10;;;;;;;;;;1924707;74;21159;-51
2022/12/30 07:27:18;;;;;;;4.90;2.47;;;;;;;;;;1924683;74;21109;-54
2022/12/30 07:29:46;;;;;;;4.10;1.98;;;;;;;;;;1924697;74;21093;-54
2022/12/30 07:32:15;;;;;;;3.85;1.90;;;;;;;;;;1924705;74;21157;-51
2022/12/30 07:34:44;;;;;;;3.83;2.60;;;;;;;;;;1924641;74;21078;-51
2022/12/30 07:37:12;;;;;;;5.37;2.60;;;;;;;;;;1924657;74;21006;-49
2022/12/30 07:39:41;;;;;;;7.05;3.92;;;;;;;;;;1924580;74;21043;-53
2022/12/30 07:42:10;;;;;;;7.17;2.65;;;;;;;;;;1924669;74;21043;-53
2022/12/30 07:44:38;;;;;;;3.00;2.08;;;;;;;;;;1924609;74;21136;-52
2022/12/30 07:47:07;;;;;;;2.27;1.80;;;;;;;;;;1924856;74;21034;-50
2022/12/30 07:49:36;;;;;;;3.65;2.17;;;;;;;;;;1924653;74;21034;-53
2022/12/30 07:52:05;;;;;;;4.20;2.22;;;;;;;;;;1924727;74;21092;-49
2022/12/30 07:54:34;;;;;;;2.98;1.85;;;;;;;;;;1924637;74;21113;-50
2022/12/30 07:57:02;;;;;;;2.75;1.70;;;;;;;;;;1924686;74;21027;-53
2022/12/30 07:59:31;;;;;;;3.02;1.67;;;;;;;;;;1924670;74;21043;-49
2022/12/30 08:02:00;;;;;;;5.37;2.10;;;;;;;;;;1924655;74;21035;-52
2022/12/30 08:04:28;;;;;;;4.33;1.77;;;;;;;;;;1924744;74;21121;-49
2022/12/30 08:06:57;;;;;;;2.95;1.47;;;;;;;;;;1924811;74;21003;-51
2022/12/30 08:09:25;;;;;;;3.20;2.10;;;;;;;;;;1921426;74;21102;-52
2022/12/30 08:11:54;;;;;;;2.42;1.90;;;;;;;;;;1905307;75;21063;-50
2022/12/30 08:14:24;;;;;;;5.45;2.20;;;;;;;;;;1905248;75;21023;-51
2022/12/30 08:16:53;;;;;;;3.02;2.30;;;;;;;;;;1905305;75;21065;-50
2022/12/30 08:19:21;;;;;;;5.75;1.90;;;;;;;;;;1905290;75;21027;-54
2022/12/30 08:21:50;;;;;;;2.77;2.00;;;;;;;;;;1905291;75;21023;-53
2022/12/30 08:24:18;;;;;;;3.70;2.27;;;;;;;;;;1905257;75;21125;-51
2022/12/30 08:26:47;;;;;;;5.47;2.25;;;;;;;;;;1905405;75;21012;-51
2022/12/30 08:29:16;;;;;;;3.33;2.27;;;;;;;;;;1905225;75;21007;-52
2022/12/30 08:31:49;;;;;;;5.03;2.20;;;;;;;;;;1905334;75;21024;-51
2022/12/30 08:34:15;;;;;;;2.98;2.20;;;;;;;;;;1904798;74;21422;-53
2022/12/30 08:36:44;;;;;;;3.80;2.02;;;;;;;;;;1905287;75;21036;-53
2022/12/30 08:39:12;;;;;;;6.20;2.00;;;;;;;;;;1905328;75;21031;-51
2022/12/30 08:41:43;;;;;;;11.10;1.55;;;;;;;;;;1905238;75;21043;-51
2022/12/30 08:44:11;;;;;;;2.62;1.62;;;;;;;;;;1905269;75;21070;-51
2022/12/30 08:46:40;;;;;;;1.92;1.67;;;;;;;;;;1905334;75;21513;-53
2022/12/30 08:49:10;;;;;;;2.80;2.35;;;;;;;;;;1905365;75;21075;-50
2022/12/30 08:51:39;;;;;;;3.85;1.95;;;;;;;;;;1905402;75;21003;-54
2022/12/30 08:54:07;;;;;;;3.40;1.67;;;;;;;;;;1905332;75;21019;-49
2022/12/30 08:56:36;;;;;;;3.45;2.02;;;;;;;;;;1905652;75;21058;-51
2022/12/30 08:59:05;;;;;;;6.08;2.10;;;;;;;;;;1905459;75;21019;-52
2022/12/30 09:01:36;;;;;;;4.28;1.87;;;;;;;;;;1905517;75;21094;-52
2022/12/30 09:04:06;;;;;;;3.33;1.42;;;;;;;;;;1905534;75;21040;-50
2022/12/30 09:06:36;;;;;;;5.70;2.00;;;;;;;;;;1905525;75;21007;-49
2022/12/30 09:09:06;;;;;;;4.53;1.85;;;;;;;;;;1905537;75;21474;-53
2022/12/30 09:11:35;;;;;;;8.18;2.47;;;;;;;;;;1905391;74;21008;-51
2022/12/30 09:14:05;;;;;;;7.72;3.02;;;;;;;;;;1905235;75;21093;-53
2022/12/30 09:16:34;;;;;;;3.47;1.85;;;;;;;;;;1905310;75;20994;-53
2022/12/30 09:19:03;;;;;;;4.95;1.90;;;;;;;;;;1905280;75;21028;-52
2022/12/30 09:21:31;;;;;;;3.47;1.30;;;;;;;;;;1905362;75;21027;-50
2022/12/30 09:24:00;;;;;;;3.95;1.80;;;;;;;;;;1905180;75;21081;-52
2022/12/30 09:26:29;;;;;;;3.90;2.22;;;;;;;;;;1905219;75;21265;-51
2022/12/30 09:28:58;;;;;;;7.30;2.60;;;;;;;;;;1905398;75;21008;-55
2022/12/30 09:31:27;;;;;;;4.67;2.25;;;;;;;;;;1905368;75;20996;-51
2022/12/30 09:33:56;;;;;;;5.85;1.62;;;;;;;;;;1905194;75;21011;-53
2022/12/30 09:36:25;;;;;;;12.15;3.72;;;;;;;;;;1905238;75;21110;-52
2022/12/30 09:38:53;;;;;;;4.97;1.77;;;;;;;;;;1905330;75;21031;-53
2022/12/30 09:43:14;;;;;;;4.65;1.87;;;;;;;;;;1905242;75;21003;-53
2022/12/30 09:44:04;;;;;;;4.67;2.50;;;;;;;;;;1903405;75;21555;-53
2022/12/30 09:46:46;;;;;;;3.65;2.55;;;;;;;;;;1904188;74;21018;-53
2022/12/30 09:49:22;;;;;;;14.87;9.30;;;;;;;;;;1905154;74;21035;-55
2022/12/30 09:51:52;;;;;;;16.37;8.55;;;;;;;;;;1905139;75;21040;-54
2022/12/30 09:54:22;;;;;;;9.35;2.70;;;;;;;;;;1905138;75;21149;-52
2022/12/30 09:56:52;;;;;;;4.65;2.08;;;;;;;;;;1905245;75;21051;-51
2022/12/30 09:59:21;;;;;;;2.92;2.10;;;;;;;;;;1905147;75;20996;-50
2022/12/30 10:01:51;;;;;;;5.20;2.47;;;;;;;;;;1904956;75;21539;-50
2022/12/30 10:04:20;;;;;;;3.95;2.60;;;;;;;;;;1904878;75;21662;-49
2022/12/30 10:06:56;;;;;;;4.05;1.90;;;;;;;;;;1904562;75;21156;-49
2022/12/30 10:09:35;;;;;;;3.95;2.40;;;;;;;;;;1905205;74;21085;-49
2022/12/30 10:12:24;;;;;;;9.48;2.67;;;;;;;;;;1904906;74;21036;-53
2022/12/30 10:14:54;;;;;;;3.65;2.05;;;;;;;;;;1905060;75;21015;-53
2022/12/30 10:17:27;;;;;;;4.47;1.95;;;;;;;;;;1905272;75;21015;-50
2022/12/30 10:20:00;;;;;;;4.70;2.30;;;;;;;;;;1899288;75;21097;-49
2022/12/30 10:22:32;;;;;;;5.28;1.82;;;;;;;;;;1904730;74;21007;-53
2022/12/30 10:25:20;;;;;;;6.85;2.05;;;;;;;;;;1905242;75;21105;-53
2022/12/30 10:27:50;;;;;;;5.08;2.45;;;;;;;;;;1905094;75;21051;-49
2022/12/30 10:30:20;;;;;;;5.45;2.10;;;;;;;;;;1905200;75;21284;-53
2022/12/30 10:32:55;;;;;;;9.08;2.52;;;;;;;;;;1905244;75;21128;-53
2022/12/30 10:35:26;;;;;;;5.65;2.10;;;;;;;;;;1905221;75;21071;-52
2022/12/30 10:38:12;;;;;;;5.65;3.12;;;;;;;;;;1905235;75;21044;-52
2022/12/30 10:40:51;;;;;;;4.72;2.20;;;;;;;;;;1905036;75;21043;-55
2022/12/30 10:43:24;;;;;;;3.33;1.42;;;;;;;;;;1905250;74;21047;-53
2022/12/30 10:45:54;;;;;;;6.17;2.47;;;;;;;;;;1904735;74;21105;-51
2022/12/30 10:48:41;;;;;;;7.37;2.62;;;;;;;;;;1905202;75;21072;-52
2022/12/30 10:51:11;;;;;;;2.55;1.87;;;;;;;;;;1905242;75;21077;-49
2022/12/30 10:53:40;;;;;;;4.50;1.90;;;;;;;;;;1905311;75;21109;-53
2022/12/30 10:56:10;;;;;;;3.30;1.90;;;;;;;;;;1905147;75;21067;-54
2022/12/30 10:58:44;;;;;;;10.13;2.17;;;;;;;;;;1905084;75;21075;-52
2022/12/30 11:01:17;;;;;;;6.47;2.02;;;;;;;;;;1905383;75;21085;-54
2022/12/30 11:03:46;;;;;;;7.05;2.35;;;;;;;;;;1905262;75;20999;-53
2022/12/30 11:06:19;;;;;;;3.55;2.12;;;;;;;;;;1905174;75;21020;-53
2022/12/30 11:08:48;;;;;;;3.45;2.02;;;;;;;;;;1905151;75;21047;-54
2022/12/30 11:11:17;;;;;;;5.72;2.30;;;;;;;;;;1912239;74;21051;-51
2022/12/30 11:16:33;;;;;;;5.22;2.25;;;;;;;;;;1924556;74;21109;-53
2022/12/30 11:19:03;;;;;;;5.35;2.92;;;;;;;;;;1924625;74;21027;-52
2022/12/30 11:21:33;;;;;;;4.03;2.15;;;;;;;;;;1924578;74;21002;-54
2022/12/30 11:24:04;;;;;;;4.10;2.47;;;;;;;;;;1923854;74;21055;-53
2022/12/30 11:26:34;;;;;;;5.53;2.77;;;;;;;;;;1924120;74;21030;-44
2022/12/30 11:29:04;;;;;;;7.75;2.20;;;;;;;;;;1923372;74;21086;-45
2022/12/30 11:31:34;;;;;;;2.42;1.90;;;;;;;;;;1924042;74;21317;-46
2022/12/30 12:23:24;;;;;;;5.22;2.27;;;10.60;79.10;;;;;;1973286;73;25466;-48
2022/12/30 13:03:20;;;;;;;3.30;1.92;;;10.10;80.90;;;;;;1958955;72;25842;-55
2022/12/30 13:06:01;;;;;;;5.62;1.70;;;10.10;82.00;;;;;;1916255;74;21450;-50
2022/12/30 13:08:38;;;;;;;8.28;2.33;;;10.10;82.20;;;;;;1918380;75;21019;-51
2022/12/30 13:11:19;;;;;;;4.12;2.20;;;10.10;82.30;;;;;;1918346;75;21084;-52
2022/12/30 13:14:12;;;;;;;8.93;3.85;;;10.10;82.10;;;;;;1918348;75;21011;-58
2022/12/30 13:16:44;;;;;;;3.85;2.12;;;10.10;82.80;;;;;;1918444;75;21063;-56
2022/12/30 13:19:15;;;;;;;2.50;1.60;;;10.10;83.00;;;;;;1918421;75;21062;-58
2022/12/30 13:21:47;;;;;;;2.52;1.87;;;10.10;82.10;;;;;;1918402;75;20987;-58
2022/12/30 13:24:21;;;;;;;3.17;1.80;;;10.10;82.50;;;;;;1918300;75;21602;-58
2022/12/30 13:26:51;;;;;;;6.10;2.10;;;10.00;82.60;;;;;;1911914;74;21089;-58
2022/12/30 13:29:21;;;;;;;2.12;1.42;;;10.00;82.60;;;;;;1918312;75;21014;-58
2022/12/30 13:31:58;;;;;;;1.87;1.55;;;9.90;82.10;;;;;;1918355;75;21093;-58
2022/12/30 13:34:36;;;;;;;3.37;1.82;;;9.80;82.70;;;;;;1917203;74;21092;-58
2022/12/30 13:37:08;;;;;;;5.55;2.55;;;9.80;83.00;;;;;;1917652;74;21059;-58
2022/12/30 13:39:42;;;;;;;2.58;1.45;;;9.70;83.00;;;;;;1918427;75;20989;-58
2022/12/30 13:42:15;;;;;;;;;;;9.70;82.90;;;;;;1921178;75;21077;-58
2022/12/30 13:44:47;;;;;;;2.02;1.70;;;9.60;82.80;;;;;;1918250;75;20109;-58
2022/12/30 13:47:36;;;;;;;3.08;1.95;;;9.60;83.30;;;;;;1918361;74;20983;-58
2022/12/30 13:50:24;;;;;;;1.87;1.60;;;9.60;83.40;;;;;;1918382;73;21080;-57
2022/12/30 13:52:56;;;;;;;13.75;5.58;;;9.50;83.40;;;;;;1918305;75;21120;-56
2022/12/30 13:55:30;;;;;;;7.90;1.90;;;9.50;83.60;;;;;;1918224;75;21104;-57
2022/12/30 13:58:11;;;;;;;2.25;1.50;;;9.50;83.70;;;;;;1918442;75;21550;-57
2022/12/30 14:00:42;;;;;;;4.35;1.65;;;9.40;83.70;;;;;;1895574;75;21039;-56
2022/12/30 14:03:29;;;;;;;2.83;1.00;;;9.40;83.80;;;;;;1907721;75;21043;-57
2022/12/30 14:06:00;;;;;;;3.60;1.70;;;9.40;83.80;;;;;;1905973;75;21543;-57
2022/12/30 14:08:31;;;;;;;3.83;2.80;;;9.40;84.00;;;;;;1905924;75;21192;-57
2022/12/30 14:11:13;;;;;;;5.70;2.70;;;9.40;84.10;;;;;;1905946;75;21548;-57
2022/12/30 14:13:46;;;;;;;2.62;2.10;;;9.40;84.10;;;;;;1905499;75;21105;-57
2022/12/30 14:16:49;;;;;;;3.95;1.85;;;9.40;84.20;;;;;;1903384;74;21023;-56
2022/12/30 14:19:30;;;;;;;3.50;1.95;;;9.30;84.30;;;;;;1905205;75;21007;-57
2022/12/30 14:21:59;;;;;;;4.15;2.42;;;9.30;84.50;;;;;;1905176;75;21474;-57
2022/12/30 14:24:39;;;;;;;3.50;2.15;;;9.30;84.60;;;;;;1905232;75;21426;-56
2022/12/30 14:27:31;;;;;;;6.00;2.42;;;9.30;84.70;;;;;;1905274;75;21020;-57
2022/12/30 14:30:05;;;;;;;4.60;2.47;;;9.30;84.80;;;;;;1904689;74;21089;-56
2022/12/30 14:32:34;;;;;;;4.00;1.82;;;9.30;84.90;;;;;;1904495;74;21543;-57
2022/12/30 14:35:05;;;;;;;3.40;2.10;;;9.30;84.90;;;;;;1905177;75;21090;-56
2022/12/30 14:37:34;;;;;;;5.37;2.83;;;9.30;85.10;;;;;;1905344;75;21310;-57
2022/12/30 14:40:26;;;;;;;3.77;2.00;;;9.30;85.10;;;;;;1905230;75;21059;-56
2022/12/30 14:42:55;;;;;;;5.67;3.45;;;9.30;85.20;;;;;;1905040;74;21470;-56
2022/12/30 14:45:26;;;;;;;4.17;2.20;;;9.30;85.20;;;;;;1905325;75;21093;-54
2022/12/30 14:47:55;;;;;;;3.70;2.10;;;9.30;85.30;;;;;;1905268;75;21536;-55
2022/12/30 14:50:30;;;;;;;2.85;2.12;;;9.30;85.90;;;;;;1905286;75;20999;-57
2022/12/30 14:53:08;;;;;;;2.55;2.08;;;9.30;85.30;;;;;;1905569;75;21031;-56
2022/12/30 14:55:39;;;;;;;9.70;2.50;;;9.30;85.40;;;;;;1905348;74;20995;-57
2022/12/30 14:58:13;;;;;;;5.75;2.95;;;9.30;85.40;;;;;;1904724;74;21121;-56
2022/12/30 15:00:45;;;;;;;3.35;2.45;;;9.20;85.50;;;;;;1905370;74;21078;-56
2022/12/30 15:03:16;;;;;;;5.90;3.22;;;9.20;85.50;;;;;;1917581;74;21501;-56
2022/12/30 15:05:51;;;;;;;7.28;2.33;;;9.20;85.50;;;;;;1924874;74;21014;-56
2022/12/30 15:08:20;;;;;;;;;;;9.20;85.60;;;;;;1926969;74;21039;-55
2022/12/30 15:10:55;;;;;;;4.25;2.20;;;9.20;85.80;;;;;;1924664;74;20132;-57
2022/12/30 15:13:27;;;;;;;3.05;2.15;;;9.20;85.80;;;;;;1887825;76;21461;-56
2022/12/30 15:15:59;;;;;;;5.75;2.20;;;9.10;85.80;;;;;;1877991;76;21035;-56
2022/12/30 15:18:49;;;;;;;8.23;3.20;;;9.20;85.80;;;;;;1877893;76;21023;-57
2022/12/30 15:21:23;;;;;;;8.53;4.40;;;9.10;85.80;;;;;;1877986;76;21105;-56
2022/12/30 15:24:04;;;;;;;6.20;3.52;;;9.20;86.00;;;;;;1877770;76;21184;-56
2022/12/30 15:26:45;;;;;;;3.60;1.98;;;9.20;86.00;;;;;;1877897;76;21536;-56
2022/12/30 15:29:23;;;;;;;4.65;2.30;;;9.10;86.10;;;;;;1878031;76;21116;-56
2022/12/30 15:31:57;;;;;;;7.30;2.65;;;9.10;86.20;;;;;;1873585;76;21555;-56
2022/12/30 15:34:40;;;;;;;6.37;2.37;;;9.10;86.30;;;;;;1878197;76;21157;-55
2022/12/30 15:37:24;;;;;;;4.60;2.12;;;9.10;86.30;;;;;;1878058;76;21125;-56
2022/12/30 15:39:56;;;;;;;2.80;2.22;;;9.10;86.20;;;;;;1878369;76;21172;-56
2022/12/30 15:42:28;;;;;;;5.50;2.65;;;9.10;86.20;;;;;;1877947;76;21125;-56
2022/12/30 15:45:00;;;;;;;3.33;2.12;;;9.10;86.30;;;;;;1873716;76;21489;-56
2022/12/30 15:47:30;;;;;;;4.87;2.35;;;9.10;86.30;;;;;;1877963;76;21039;-56
2022/12/30 15:50:01;;;;;;;3.30;2.40;;;9.00;86.30;;;;;;1877975;76;21023;-56
2022/12/30 15:52:41;;;;;;;3.10;2.15;;;9.10;86.50;;;;;;1877997;76;21023;-56
2022/12/30 15:55:13;;;;;;;4.87;2.15;;;9.00;86.50;;;;;;1877929;76;21055;-56
2022/12/30 15:57:43;;;;;;;5.10;2.45;;;9.10;86.50;;;;;;1877421;76;21059;-56
2022/12/30 16:00:23;;;;;;;4.78;2.37;;;9.00;86.40;;;;;;1877971;76;21023;-55
2022/12/30 16:02:58;;;;;;;2.75;1.95;;;9.00;86.40;;;;;;1876266;76;21049;-56
2022/12/30 16:05:30;;;;;;;3.67;2.17;;;9.10;86.40;;;;;;1871396;77;21052;-56
2022/12/30 16:08:19;;;;;;;5.72;3.27;;;9.10;86.40;;;;;;1871243;77;21465;-55
2022/12/30 16:11:02;;;;;;;4.40;2.62;;;9.10;86.40;;;;;;1871344;76;21055;-56
2022/12/30 16:13:33;;;;;;;5.62;2.08;;;9.10;86.40;;;;;;1871313;76;21450;-55
2022/12/30 16:16:05;;;;;;;6.65;4.45;;;9.10;86.40;;;;;;1869678;77;21055;-56
2022/12/30 16:18:34;;;;;;;6.20;2.35;;;9.10;86.40;;;;;;1869143;77;21509;-56
2022/12/30 16:21:06;;;;;;;5.28;2.15;;;9.10;86.50;;;;;;1871152;76;21568;-57
2022/12/30 16:23:41;;;;;;;7.05;3.77;;;9.10;86.50;;;;;;1869699;77;21071;-56
2022/12/30 16:26:27;;;;;;;5.60;2.25;;;9.10;86.60;;;;;;1871329;77;21117;-55
2022/12/30 16:29:11;;;;;;;7.17;3.15;;;9.10;87.10;;;;;;1871379;77;21007;-57
2022/12/30 16:31:41;;;;;;;5.75;3.33;;;9.10;86.60;;;;;;1867220;77;21031;-56
2022/12/30 16:34:10;;;;;;;6.15;3.00;;;9.20;86.70;;;;;;1871161;77;21129;-56
2022/12/30 16:36:39;;;;;;;4.12;2.83;;;9.10;86.70;;;;;;1871257;77;21109;-56
2022/12/30 16:39:10;;;;;;;3.77;2.40;;;9.10;86.70;;;;;;1871232;77;21015;-56
2022/12/30 16:41:39;;;;;;;3.15;2.40;;;9.10;86.70;;;;;;1871233;77;21020;-56
2022/12/30 16:44:19;;;;;;;4.40;2.52;;;9.10;86.70;;;;;;1871304;76;21075;-56
2022/12/30 16:46:48;;;;;;;4.00;2.22;;;9.20;86.60;;;;;;1871454;77;21176;-56
2022/12/30 16:49:18;;;;;;;4.67;2.55;;;9.20;86.60;;;;;;1871348;77;21043;-55
2022/12/30 16:51:50;;;;;;;5.03;2.52;;;9.20;86.60;;;;;;1871464;77;21021;-56
2022/12/30 16:54:21;;;;;;;3.15;2.15;;;9.20;86.60;;;;;;1870472;77;21059;-56
2022/12/30 16:56:52;;;;;;;4.53;2.10;;;9.20;86.60;;;;;;1871423;77;21023;-56